Time;durP1;ratioP1;P1;durP2;ratioP2;P2;SDS_P1;SDS_P2;PMS_P1;PMS_P2;Temp;Humidity;BMP_temperature;BMP_pressure;BME280_temperature;BME280_humidity;BME280_pressure;Samples;Min_cycle;Max_cycle;Signal;HPM_P1;HPM_P2
2023/10/05 00:03:44;;;;;;;7.07;1.23;;;11.80;99.90;;;;;;4975891;28;20050;-77
2023/10/05 00:06:23;;;;;;;8.73;1.20;;;11.80;99.90;;;;;;4992599;28;20280;-78
2023/10/05 00:08:49;;;;;;;8.82;2.67;;;11.70;99.90;;;;;;4976576;28;20105;-76
2023/10/05 00:11:29;;;;;;;6.93;2.08;;;11.40;99.90;;;;;;4976741;28;20058;-76
2023/10/05 00:14:06;;;;;;;9.15;1.55;;;11.60;99.90;;;;;;4976707;28;20054;-77
2023/10/05 00:16:37;;;;;;;11.38;2.13;;;11.70;99.90;;;;;;4961223;28;20070;-74
2023/10/05 00:21:37;;;;;;;7.10;1.23;;;11.60;99.90;;;;;;4976818;28;20806;-77
2023/10/05 00:24:06;;;;;;;9.52;1.52;;;12.10;99.90;;;;;;4976868;28;20086;-78
2023/10/05 00:26:33;;;;;;;7.80;1.40;;;11.40;99.90;;;;;;4976475;28;20057;-77
2023/10/05 00:31:44;;;;;;;7.57;1.42;;;;;;;;;;4976440;28;20149;-77
2023/10/05 00:34:24;;;;;;;8.40;1.65;;;;;;;;;;4976426;28;20035;-77
2023/10/05 00:36:50;;;;;;;18.00;1.58;;;;;;;;;;4991684;28;20061;-79
2023/10/05 00:39:21;;;;;;;8.57;1.52;;;11.80;99.90;;;;;;4974872;28;20150;-76
2023/10/05 00:44:36;;;;;;;9.10;1.30;;;11.60;99.90;;;;;;4974875;28;20109;-76
2023/10/05 00:47:06;;;;;;;11.32;1.50;;;11.90;99.90;;;;;;4975016;28;20469;-76
2023/10/05 00:52:15;;;;;;;9.30;1.20;;;11.80;99.90;;;;;;4975524;28;20066;-77
2023/10/05 00:54:48;;;;;;;9.35;2.00;;;11.70;99.90;;;;;;4975591;28;20043;-78
2023/10/05 00:57:15;;;;;;;8.55;1.60;;;;;;;;;;4975586;28;20042;-74
2023/10/05 01:00:29;;;;;;;13.50;3.67;;;11.80;99.90;;;;;;4975686;28;20108;-74
2023/10/05 01:02:45;;;;;;;13.15;1.38;;;;;;;;;;4982227;28;20065;-77
2023/10/05 01:05:25;;;;;;;10.45;1.40;;;11.90;99.90;;;;;;4975609;28;20096;-76
2023/10/05 01:07:56;;;;;;;9.77;2.72;;;11.60;99.90;;;;;;4959415;28;20213;-77
2023/10/05 01:12:50;;;;;;;10.20;1.45;;;12.00;99.90;;;;;;4974893;28;20527;-73
2023/10/05 01:15:32;;;;;;;11.68;1.55;;;11.70;99.90;;;;;;4975630;28;20050;-75
2023/10/05 01:17:58;;;;;;;10.55;1.73;;;12.00;99.90;;;;;;4991687;28;20050;-75
2023/10/05 01:20:25;;;;;;;7.00;1.42;;;11.50;99.90;;;;;;4974224;28;20062;-77
2023/10/05 01:22:55;;;;;;;10.45;1.65;;;12.10;99.90;;;;;;4974160;28;20090;-75
2023/10/05 01:25:21;;;;;;;7.50;1.67;;;12.00;99.90;;;;;;4974448;28;20057;-76
2023/10/05 01:27:49;;;;;;;10.10;1.90;;;12.00;99.90;;;;;;4974221;28;20050;-77
2023/10/05 01:30:17;;;;;;;10.85;1.80;;;12.10;99.90;;;;;;4958212;28;20089;-75
2023/10/05 01:32:44;;;;;;;9.55;2.10;;;12.10;99.90;;;;;;4973898;28;20367;-76
2023/10/05 01:35:12;;;;;;;8.57;1.48;;;12.10;99.90;;;;;;4974160;28;20042;-76
2023/10/05 01:37:45;;;;;;;14.48;1.73;;;12.10;99.90;;;;;;4975139;28;20108;-77
2023/10/05 01:40:36;;;;;;;13.40;1.70;;;11.80;99.90;;;;;;4975095;28;20316;-76
2023/10/05 01:42:59;;;;;;;12.68;1.95;;;12.10;99.90;;;;;;4974709;28;20502;-74
2023/10/05 01:45:29;;;;;;;9.77;1.65;;;12.40;99.90;;;;;;4975654;28;20062;-76
2023/10/05 01:47:55;;;;;;;19.77;4.03;;;12.30;99.90;;;;;;4958542;28;20153;-76
2023/10/05 01:50:26;;;;;;;13.63;2.03;;;12.30;99.90;;;;;;4975447;28;20054;-76
2023/10/05 01:53:35;;;;;;;10.30;1.85;;;12.10;99.90;;;;;;4975484;28;20054;-77
2023/10/05 01:55:45;;;;;;;8.63;2.20;;;12.10;99.90;;;;;;4970020;28;20553;-76
2023/10/05 01:58:21;;;;;;;13.10;1.75;;;12.40;99.90;;;;;;4975054;28;20065;-76
2023/10/05 02:00:47;;;;;;;11.52;1.80;;;12.30;99.90;;;;;;4975115;28;20555;-76
2023/10/05 02:03:13;;;;;;;10.50;2.20;;;11.80;99.90;;;;;;4975313;28;20058;-76
2023/10/05 02:05:39;;;;;;;6.57;1.50;;;11.80;99.90;;;;;;4975374;28;20191;-75
2023/10/05 02:08:05;;;;;;;18.25;2.10;;;11.80;99.90;;;;;;4974931;28;20584;-77
2023/10/05 02:10:39;;;;;;;11.60;1.58;;;12.00;99.90;;;;;;4958425;28;20148;-77
2023/10/05 02:13:11;;;;;;;9.77;2.47;;;12.00;99.90;;;;;;4974549;28;20058;-74
2023/10/05 02:15:41;;;;;;;10.73;3.22;;;12.10;99.90;;;;;;4991233;28;20547;-77
2023/10/05 02:18:24;;;;;;;10.63;1.90;;;11.70;99.90;;;;;;4974187;28;20046;-76
2023/10/05 02:20:56;;;;;;;13.90;2.85;;;11.70;99.90;;;;;;4991328;28;20125;-76
2023/10/05 02:23:25;;;;;;;;;;;11.70;99.90;;;;;;4969534;28;20086;-76
2023/10/05 02:25:56;;;;;;;17.40;2.30;;;11.70;99.90;;;;;;4969263;28;19973;-77
2023/10/05 02:28:25;;;;;;;12.23;1.95;;;12.20;99.90;;;;;;4968807;28;20524;-77
2023/10/05 02:30:59;;;;;;;15.75;2.63;;;11.70;99.90;;;;;;4974347;28;20054;-76
2023/10/05 02:33:27;;;;;;;15.98;2.80;;;11.70;99.90;;;;;;4974524;28;20473;-77
2023/10/05 02:36:20;;;;;;;6.95;2.30;;;8.80;99.90;;;;;;4975134;28;20223;-76
2023/10/05 02:38:49;;;;;;;11.68;2.58;;;11.80;99.90;;;;;;4970739;28;20197;-74
2023/10/05 02:41:24;;;;;;;10.50;1.60;;;11.80;99.90;;;;;;4972407;28;20081;-77
2023/10/05 02:43:53;;;;;;;12.60;1.88;;;11.80;99.90;;;;;;4974662;28;20058;-75
2023/10/05 02:46:20;;;;;;;11.80;1.95;;;11.80;99.90;;;;;;4974585;28;20051;-75
2023/10/05 02:48:47;;;;;;;11.57;1.48;;;12.10;99.90;;;;;;4974219;28;20058;-76
2023/10/05 02:51:13;;;;;;;11.98;1.70;;;12.70;99.90;;;;;;4974720;28;20112;-77
2023/10/05 02:53:56;;;;;;;12.65;2.13;;;12.10;99.90;;;;;;4973702;28;20046;-76
2023/10/05 02:56:33;;;;;;;6.90;1.65;;;12.00;99.90;;;;;;4974141;28;20054;-77
2023/10/05 02:59:20;;;;;;;11.02;1.85;;;12.40;99.90;;;;;;4973615;28;20057;-76
2023/10/05 03:01:45;;;;;;;11.02;1.95;;;12.40;99.90;;;;;;4973899;28;20058;-76
2023/10/05 03:06:40;;;;;;;10.93;1.67;;;12.10;99.90;;;;;;4972325;28;20452;-76
2023/10/05 03:09:10;;;;;;;11.25;2.00;;;12.30;99.90;;;;;;4971905;28;20523;-76
2023/10/05 03:11:52;;;;;;;13.07;3.20;;;12.20;99.90;;;;;;4972301;28;20054;-76
2023/10/05 03:14:18;;;;;;;;;;;12.30;99.90;;;;;;4973052;28;20058;-77
2023/10/05 03:16:44;;;;;;;7.10;1.42;;;12.20;99.90;;;;;;4972378;28;20091;-75
2023/10/05 03:19:20;;;;;;;9.18;1.42;;;12.30;99.90;;;;;;4973506;28;20054;-77
2023/10/05 03:21:57;;;;;;;9.68;1.70;;;12.70;99.90;;;;;;4967305;28;20050;-77
2023/10/05 03:24:25;;;;;;;8.30;2.05;;;11.90;99.90;;;;;;4973848;28;20082;-75
2023/10/05 03:26:56;;;;;;;10.77;1.80;;;12.10;99.90;;;;;;4973869;28;20657;-75
2023/10/05 03:29:23;;;;;;;14.85;2.67;;;12.20;99.90;;;;;;4973422;28;20062;-77
2023/10/05 03:32:04;;;;;;;10.75;2.40;;;12.20;99.90;;;;;;4974318;28;20046;-76
2023/10/05 03:34:32;;;;;;;9.85;1.23;;;11.90;99.90;;;;;;4990580;28;20055;-77
2023/10/05 03:37:03;;;;;;;10.40;1.98;;;12.00;99.90;;;;;;4989911;28;20061;-76
2023/10/05 03:39:33;;;;;;;11.50;1.70;;;12.10;99.90;;;;;;4989966;28;20153;-77
2023/10/05 03:41:59;;;;;;;11.02;2.22;;;12.00;99.90;;;;;;4990395;28;20050;-77
2023/10/05 03:44:25;;;;;;;12.25;2.00;;;11.70;99.90;;;;;;4973730;28;20136;-76
2023/10/05 03:46:52;;;;;;;9.70;1.75;;;;;;;;;;4973542;28;20715;-75
2023/10/05 03:49:21;;;;;;;9.75;2.42;;;12.00;99.90;;;;;;4973436;28;20062;-75
2023/10/05 03:51:51;;;;;;;8.40;1.77;;;;;;;;;;4973332;28;20061;-77
2023/10/05 03:54:26;;;;;;;12.88;3.15;;;12.20;99.90;;;;;;4973786;28;20043;-75
2023/10/05 03:57:10;;;;;;;9.48;2.20;;;12.00;99.90;;;;;;4973999;28;20137;-78
2023/10/05 03:59:37;;;;;;;11.77;2.58;;;12.00;99.90;;;;;;4973706;28;20061;-77
2023/10/05 04:02:06;;;;;;;8.48;1.63;;;12.20;99.90;;;;;;4990176;28;20046;-78
2023/10/05 04:04:35;;;;;;;18.17;2.28;;;12.20;99.90;;;;;;4973391;28;20054;-78
2023/10/05 04:07:05;;;;;;;11.60;1.88;;;12.00;99.90;;;;;;4973573;28;20141;-76
2023/10/05 04:09:33;;;;;;;15.18;2.22;;;12.10;99.90;;;;;;4972552;28;20576;-76
2023/10/05 04:12:00;;;;;;;13.63;2.47;;;12.00;99.90;;;;;;4976241;28;20731;-78
2023/10/05 04:14:28;;;;;;;7.20;1.50;;;;;;;;;;4976699;28;20046;-75
2023/10/05 04:16:56;;;;;;;10.63;1.63;;;;;;;;;;4976794;28;20802;-76
2023/10/05 04:19:22;;;;;;;14.27;2.88;;;12.20;99.90;;;;;;4992770;28;20141;-76
2023/10/05 04:21:48;;;;;;;9.70;1.60;;;12.30;99.90;;;;;;4993064;28;20047;-76
2023/10/05 04:24:14;;;;;;;10.77;1.52;;;12.40;99.90;;;;;;4960634;28;20113;-76
2023/10/05 04:26:44;;;;;;;15.00;1.92;;;12.10;99.90;;;;;;4975850;28;20046;-76
2023/10/05 04:29:10;;;;;;;6.50;2.03;;;;;;;;;;4993489;28;20133;-77
2023/10/05 04:31:36;;;;;;;11.63;1.63;;;12.40;99.90;;;;;;4977217;28;20101;-77
2023/10/05 04:34:11;;;;;;;11.48;2.35;;;12.00;99.90;;;;;;4959500;28;20050;-76
2023/10/05 04:36:38;;;;;;;11.02;1.45;;;12.50;99.90;;;;;;4976500;28;20061;-77
2023/10/05 04:39:05;;;;;;;11.07;2.03;;;12.20;99.90;;;;;;4960499;28;20162;-77
2023/10/05 04:41:34;;;;;;;10.35;1.88;;;12.20;99.90;;;;;;4976998;28;20812;-78
2023/10/05 04:44:00;;;;;;;12.93;1.92;;;12.40;99.90;;;;;;4976309;28;20065;-76
2023/10/05 04:46:28;;;;;;;10.15;2.72;;;12.90;99.90;;;;;;4976833;28;20050;-78
2023/10/05 04:48:55;;;;;;;12.38;2.28;;;12.40;99.90;;;;;;4960097;28;20090;-75
2023/10/05 04:51:27;;;;;;;6.78;1.77;;;12.30;99.90;;;;;;4976585;28;20096;-76
2023/10/05 04:53:58;;;;;;;12.43;2.28;;;;;;;;;;4960067;28;20046;-77
2023/10/05 04:56:36;;;;;;;13.48;1.85;;;;;;;;;;4975446;28;20828;-77
2023/10/05 05:07:09;;;;;;;12.02;1.73;;;12.20;99.90;;;;;;4975851;28;20069;-78
2023/10/05 05:09:40;;;;;;;12.20;1.77;;;12.10;99.90;;;;;;4975971;28;20058;-76
2023/10/05 05:12:12;;;;;;;10.82;1.75;;;12.00;99.90;;;;;;4985959;28;20055;-75
2023/10/05 05:14:42;;;;;;;10.20;1.60;;;12.10;99.90;;;;;;4986380;28;20527;-76
2023/10/05 05:17:13;;;;;;;10.00;1.85;;;11.90;99.90;;;;;;4975571;28;20774;-76
2023/10/05 05:19:39;;;;;;;13.65;2.45;;;;;;;;;;4975732;28;20061;-77
2023/10/05 05:22:06;;;;;;;10.82;1.98;;;12.00;99.90;;;;;;4974842;28;20444;-76
2023/10/05 05:24:38;;;;;;;16.67;2.63;;;12.50;99.90;;;;;;4975803;28;20064;-77
2023/10/05 05:27:11;;;;;;;12.35;2.22;;;12.50;99.90;;;;;;4975771;28;20112;-77
2023/10/05 05:29:38;;;;;;;13.90;2.33;;;12.20;99.90;;;;;;4992539;28;20481;-75
2023/10/05 05:32:10;;;;;;;10.77;2.65;;;12.40;99.90;;;;;;4976892;28;20054;-77
2023/10/05 05:34:42;;;;;;;13.20;2.20;;;12.40;99.90;;;;;;4975581;28;20050;-75
2023/10/05 05:37:30;;;;;;;11.80;2.15;;;12.20;99.90;;;;;;4975612;28;20046;-75
2023/10/05 05:39:57;;;;;;;12.73;2.45;;;12.50;99.90;;;;;;4971475;28;20116;-74
2023/10/05 05:42:30;;;;;;;10.45;2.95;;;12.60;99.90;;;;;;4975593;28;20069;-76
2023/10/05 05:44:55;;;;;;;11.48;2.72;;;12.30;99.90;;;;;;4975391;28;20121;-77
2023/10/05 05:47:21;;;;;;;14.95;2.00;;;12.40;99.90;;;;;;4959317;28;20060;-77
2023/10/05 05:49:47;;;;;;;8.07;2.38;;;12.20;99.90;;;;;;4974786;28;20060;-76
2023/10/05 05:52:17;;;;;;;17.70;2.78;;;12.30;99.90;;;;;;4973756;28;20054;-76
2023/10/05 05:54:46;;;;;;;9.63;1.73;;;12.30;99.90;;;;;;4974287;28;20779;-76
2023/10/05 05:57:19;;;;;;;14.52;2.40;;;12.60;99.90;;;;;;4973834;28;20758;-76
2023/10/05 05:59:44;;;;;;;;;;;12.40;99.90;;;;;;4974121;28;20133;-75
2023/10/05 06:02:10;;;;;;;13.35;2.15;;;12.70;99.90;;;;;;4973256;28;19952;-75
2023/10/05 06:04:41;;;;;;;12.85;2.10;;;12.50;99.90;;;;;;4973735;28;20050;-76
2023/10/05 06:07:13;;;;;;;12.25;2.45;;;12.90;99.90;;;;;;4967891;28;20423;-76
2023/10/05 06:09:43;;;;;;;13.43;2.05;;;12.50;99.90;;;;;;4991068;28;20073;-76
2023/10/05 06:12:12;;;;;;;13.93;1.67;;;12.40;99.90;;;;;;4967851;28;20592;-77
2023/10/05 06:14:40;;;;;;;14.00;2.47;;;12.60;99.90;;;;;;4973057;28;20054;-77
2023/10/05 06:17:07;;;;;;;9.85;1.48;;;12.80;99.90;;;;;;4974792;28;20124;-77
2023/10/05 06:19:33;;;;;;;14.38;2.03;;;12.50;99.90;;;;;;4974237;28;20927;-76
2023/10/05 06:21:59;;;;;;;6.45;1.80;;;12.60;99.90;;;;;;4974617;28;20058;-75
2023/10/05 06:24:24;;;;;;;12.05;2.05;;;12.60;99.90;;;;;;4974311;28;20140;-74
2023/10/05 06:26:50;;;;;;;12.05;2.42;;;12.40;99.90;;;;;;4973656;28;20046;-77
2023/10/05 06:29:16;;;;;;;10.18;2.30;;;12.60;99.90;;;;;;4973027;28;20116;-76
2023/10/05 06:31:43;;;;;;;15.40;2.92;;;12.90;99.90;;;;;;4973551;28;20127;-75
2023/10/05 06:34:09;;;;;;;14.52;2.38;;;;;;;;;;4973050;28;20117;-74
2023/10/05 06:36:39;;;;;;;14.57;2.30;;;12.90;99.90;;;;;;4990082;28;20066;-77
2023/10/05 06:39:06;;;;;;;18.58;2.38;;;13.20;99.90;;;;;;4972240;28;20061;-76
2023/10/05 06:41:34;;;;;;;19.60;5.20;;;13.10;99.90;;;;;;4972057;28;20457;-78
2023/10/05 06:44:01;;;;;;;11.50;2.65;;;13.30;99.90;;;;;;4988927;28;20060;-73
2023/10/05 06:46:27;;;;;;;15.52;3.63;;;13.40;99.90;;;;;;4973993;28;20080;-76
2023/10/05 06:48:53;;;;;;;13.05;2.83;;;13.50;99.90;;;;;;4973117;28;20100;-75
2023/10/05 06:51:30;;;;;;;12.60;2.30;;;13.60;99.90;;;;;;4989750;28;20065;-76
2023/10/05 06:53:59;;;;;;;11.52;2.20;;;13.70;99.90;;;;;;4972373;28;20050;-76
2023/10/05 06:56:29;;;;;;;10.65;1.90;;;;;;;;;;4973208;28;20053;-75
2023/10/05 06:58:55;;;;;;;11.88;1.92;;;13.80;99.90;;;;;;4974434;28;20069;-74
2023/10/05 07:01:21;;;;;;;11.23;2.10;;;13.90;99.90;;;;;;4973099;28;20452;-74
2023/10/05 07:03:52;;;;;;;9.85;2.97;;;13.90;99.90;;;;;;4972452;28;20054;-75
2023/10/05 07:06:22;;;;;;;12.95;2.25;;;14.00;99.90;;;;;;4972897;28;20128;-76
2023/10/05 07:08:49;;;;;;;15.00;2.30;;;13.90;99.90;;;;;;4989203;28;20089;-76
2023/10/05 07:11:16;;;;;;;14.50;2.42;;;13.90;99.90;;;;;;4972016;28;20101;-77
2023/10/05 07:13:42;;;;;;;12.40;1.90;;;14.10;99.90;;;;;;4972173;28;20693;-74
2023/10/05 07:16:09;;;;;;;16.73;2.83;;;14.20;99.90;;;;;;4971934;28;20050;-76
2023/10/05 07:18:35;;;;;;;9.35;1.98;;;14.30;99.90;;;;;;4973489;28;20161;-76
2023/10/05 07:21:04;;;;;;;10.07;2.00;;;14.30;99.90;;;;;;4973504;28;20343;-73
2023/10/05 07:23:29;;;;;;;11.48;2.85;;;14.30;99.90;;;;;;4974003;28;20559;-75
2023/10/05 07:25:55;;;;;;;17.20;2.60;;;;;;;;;;4972820;28;20046;-75
2023/10/05 07:28:21;;;;;;;14.05;1.90;;;14.70;99.90;;;;;;4972041;28;20125;-74
2023/10/05 07:30:47;;;;;;;11.48;2.53;;;14.60;99.90;;;;;;4972124;28;20827;-74
2023/10/05 07:33:14;;;;;;;10.07;2.03;;;14.90;99.90;;;;;;4972369;28;20077;-77
2023/10/05 07:35:40;;;;;;;9.38;1.92;;;14.90;99.90;;;;;;4971992;28;20049;-76
2023/10/05 07:38:11;;;;;;;11.85;1.63;;;;;;;;;;4972599;28;20064;-73
2023/10/05 07:40:37;;;;;;;13.88;1.73;;;15.00;99.90;;;;;;4989701;28;20058;-76
2023/10/05 07:43:06;;;;;;;13.02;2.60;;;15.00;99.90;;;;;;4972966;28;20862;-77
2023/10/05 07:45:32;;;;;;;12.18;2.63;;;15.00;99.90;;;;;;4973174;28;20266;-74
2023/10/05 07:47:59;;;;;;;18.55;2.83;;;15.30;99.90;;;;;;4974866;28;20050;-73
2023/10/05 07:50:26;;;;;;;12.10;2.08;;;15.20;99.90;;;;;;4976205;28;20054;-77
2023/10/05 07:52:52;;;;;;;11.80;2.20;;;15.10;99.90;;;;;;4976167;28;20057;-75
2023/10/05 07:55:17;;;;;;;10.70;3.00;;;15.20;99.90;;;;;;4975532;28;20034;-76
2023/10/05 07:57:43;;;;;;;10.55;1.75;;;15.20;99.90;;;;;;4975959;28;20666;-76
2023/10/05 08:00:13;;;;;;;10.80;1.83;;;15.30;99.90;;;;;;4976866;28;20934;-76
2023/10/05 08:02:40;;;;;;;10.77;1.92;;;15.30;99.90;;;;;;4976897;28;20395;-77
2023/10/05 08:05:08;;;;;;;9.57;1.75;;;15.40;99.90;;;;;;4975139;28;20142;-76
2023/10/05 08:07:33;;;;;;;14.73;2.70;;;15.50;99.90;;;;;;4976348;28;20050;-74
2023/10/05 08:09:59;;;;;;;15.77;2.63;;;15.80;99.90;;;;;;4975716;28;20251;-78
2023/10/05 08:12:28;;;;;;;15.23;2.60;;;15.50;99.90;;;;;;4975685;28;20191;-78
2023/10/05 08:14:56;;;;;;;12.40;1.60;;;15.40;99.90;;;;;;4974996;28;20870;-77
2023/10/05 08:17:22;;;;;;;18.20;2.08;;;15.50;99.90;;;;;;4992584;28;20050;-76
2023/10/05 08:19:48;;;;;;;14.55;3.28;;;15.50;99.90;;;;;;4976480;28;20053;-77
2023/10/05 08:22:16;;;;;;;14.77;2.55;;;15.50;99.90;;;;;;4976386;28;20090;-76
2023/10/05 08:24:42;;;;;;;15.77;3.28;;;15.50;99.90;;;;;;4976444;28;20050;-76
2023/10/05 08:27:13;;;;;;;14.70;2.90;;;15.40;99.90;;;;;;4989819;28;20060;-74
2023/10/05 08:29:40;;;;;;;12.13;2.25;;;15.30;99.90;;;;;;4976707;28;20101;-75
2023/10/05 08:32:07;;;;;;;12.77;2.20;;;15.40;99.90;;;;;;4976583;28;20140;-76
2023/10/05 08:34:33;;;;;;;20.45;4.30;;;15.40;99.90;;;;;;4976296;28;20118;-77
2023/10/05 08:37:01;;;;;;;11.88;2.53;;;15.60;99.90;;;;;;4975744;28;20085;-77
2023/10/05 08:39:35;;;;;;;18.08;2.70;;;15.20;99.90;;;;;;4976456;28;20116;-75
2023/10/05 08:42:06;;;;;;;14.48;3.13;;;15.30;99.90;;;;;;4975426;28;20050;-76
2023/10/05 08:44:39;;;;;;;13.18;2.30;;;15.30;99.90;;;;;;4976137;28;20092;-76
2023/10/05 08:47:10;;;;;;;15.65;2.70;;;15.20;99.90;;;;;;4975774;28;20050;-76
2023/10/05 08:49:36;;;;;;;12.27;3.25;;;15.20;99.90;;;;;;4976435;28;20053;-79
2023/10/05 08:52:13;;;;;;;14.18;3.40;;;15.30;99.90;;;;;;4975912;28;20050;-80
2023/10/05 08:54:39;;;;;;;20.35;5.63;;;;;;;;;;4991715;28;20050;-76
2023/10/05 08:57:11;;;;;;;15.90;3.10;;;15.20;99.90;;;;;;4975024;28;20073;-78
2023/10/05 08:59:47;;;;;;;24.92;5.35;;;14.90;99.90;;;;;;4972463;28;20176;-73
2023/10/05 09:02:18;;;;;;;14.73;3.15;;;14.90;99.90;;;;;;4972365;28;20083;-75
2023/10/05 09:04:51;;;;;;;10.17;3.27;;;14.90;99.90;;;;;;4973904;28;20066;-74
2023/10/05 09:07:29;;;;;;;19.83;3.78;;;14.80;99.90;;;;;;4973254;28;20058;-75
2023/10/05 09:09:55;;;;;;;16.17;4.30;;;14.50;99.90;;;;;;4973688;28;20535;-75
2023/10/05 09:12:35;;;;;;;18.95;3.92;;;17.70;99.90;;;;;;4973228;28;20141;-73
2023/10/05 09:17:58;;;;;;;17.30;4.65;;;14.80;99.90;;;;;;4971784;28;20128;-76
2023/10/05 09:20:33;;;;;;;24.05;5.03;;;15.80;99.90;;;;;;4971661;28;20069;-75
2023/10/05 09:23:01;;;;;;;23.40;4.95;;;15.10;99.90;;;;;;4974235;28;20046;-75
2023/10/05 09:25:36;;;;;;;20.73;4.95;;;15.20;99.90;;;;;;4974987;28;20050;-74
2023/10/05 09:28:19;;;;;;;19.55;4.85;;;15.80;99.90;;;;;;4972047;28;20913;-77
2023/10/05 09:30:56;;;;;;;20.65;4.93;;;15.60;99.90;;;;;;4989659;28;20042;-76
2023/10/05 09:33:25;;;;;;;15.88;5.90;;;15.90;99.90;;;;;;4972707;28;20061;-75
2023/10/05 09:35:51;;;;;;;15.70;4.15;;;15.80;99.90;;;;;;4973696;28;20630;-77
2023/10/05 09:38:24;;;;;;;16.58;4.45;;;15.90;99.90;;;;;;4990499;28;20050;-76
2023/10/05 09:40:53;;;;;;;16.35;4.30;;;16.00;99.90;;;;;;4975551;28;20058;-78
2023/10/05 09:43:22;;;;;;;15.15;3.88;;;16.20;99.90;;;;;;4991692;28;20085;-80
2023/10/05 09:45:52;;;;;;;21.58;4.45;;;16.30;99.90;;;;;;4975731;28;20151;-76
2023/10/05 09:48:20;;;;;;;14.00;3.65;;;16.30;99.90;;;;;;4992257;28;20053;-79
2023/10/05 09:50:47;;;;;;;14.38;3.85;;;16.90;99.90;;;;;;4975126;28;20057;-77
2023/10/05 09:53:17;;;;;;;17.15;4.68;;;16.50;99.90;;;;;;4974779;28;20057;-76
2023/10/05 09:55:47;;;;;;;14.00;3.30;;;16.60;99.90;;;;;;4975066;28;20858;-79
2023/10/05 09:58:14;;;;;;;16.55;3.10;;;16.50;99.90;;;;;;4974881;28;20531;-73
2023/10/05 10:03:06;;;;;;;13.00;3.40;;;16.10;99.90;;;;;;4972431;28;20053;-80
2023/10/05 10:05:36;;;;;;;11.05;2.85;;;16.10;99.90;;;;;;4974772;28;20058;-75
2023/10/05 10:08:26;;;;;;;13.93;3.05;;;16.00;99.90;;;;;;4974058;28;20050;-75
2023/10/05 10:11:07;;;;;;;11.50;2.92;;;15.90;99.90;;;;;;4973731;28;20109;-72
2023/10/05 10:13:37;;;;;;;13.23;4.32;;;15.90;99.90;;;;;;4974876;28;20665;-73
2023/10/05 10:16:33;;;;;;;8.05;2.83;;;15.90;99.90;;;;;;4991276;28;20098;-72
2023/10/05 10:19:04;;;;;;;10.75;2.67;;;15.90;99.90;;;;;;4958539;28;20060;-73
2023/10/05 10:21:42;;;;;;;9.85;2.50;;;16.00;99.90;;;;;;4974244;28;20057;-73
2023/10/05 10:24:11;;;;;;;9.95;2.85;;;15.80;99.90;;;;;;4974912;28;20054;-74
2023/10/05 10:27:15;;;;;;;10.90;2.38;;;16.10;99.90;;;;;;4989383;28;20147;-74
2023/10/05 10:29:56;;;;;;;7.82;2.30;;;16.20;99.90;;;;;;4900132;29;20047;-75
2023/10/05 10:32:24;;;;;;;8.35;2.40;;;16.40;99.90;;;;;;4966218;28;20138;-74
2023/10/05 10:34:55;;;;;;;8.60;2.47;;;16.40;99.90;;;;;;4989267;28;20125;-75
2023/10/05 10:37:39;;;;;;;9.75;2.58;;;16.60;99.90;;;;;;4972938;28;20497;-78
2023/10/05 10:40:15;;;;;;;7.45;1.88;;;16.80;99.90;;;;;;4973285;28;20054;-74
2023/10/05 10:45:36;;;;;;;9.65;2.05;;;17.00;99.90;;;;;;4968942;28;20065;-79
2023/10/05 10:48:14;;;;;;;8.73;2.03;;;17.20;99.90;;;;;;4973469;28;21577;-73
2023/10/05 10:50:40;;;;;;;7.25;2.00;;;17.10;99.90;;;;;;4972048;28;20047;-78
2023/10/05 10:53:18;;;;;;;7.65;2.03;;;17.20;99.90;;;;;;4971400;28;20066;-75
2023/10/05 10:55:51;;;;;;;8.68;3.25;;;17.40;99.90;;;;;;4988757;28;20042;-77
2023/10/05 10:58:23;;;;;;;9.15;2.10;;;17.50;99.90;;;;;;4974124;28;20836;-79
2023/10/05 11:00:57;;;;;;;8.48;1.92;;;17.60;99.90;;;;;;4973164;28;20176;-81
2023/10/05 11:03:36;;;;;;;9.55;2.20;;;18.00;99.90;;;;;;4973622;28;20046;-84
2023/10/05 11:06:04;;;;;;;7.55;2.28;;;18.00;99.90;;;;;;4986252;28;20129;-80
2023/10/05 11:08:33;;;;;;;10.75;1.90;;;17.90;99.90;;;;;;4973130;28;20053;-77
2023/10/05 11:11:15;;;;;;;11.70;2.67;;;17.90;99.90;;;;;;4989693;28;20045;-77
2023/10/05 11:14:00;;;;;;;10.50;2.40;;;17.90;99.90;;;;;;4974106;28;20058;-74
2023/10/05 11:16:43;;;;;;;13.55;3.05;;;17.90;99.90;;;;;;4990133;28;20862;-77
2023/10/05 11:19:15;;;;;;;11.40;2.25;;;18.00;99.90;;;;;;4989900;28;20047;-80
2023/10/05 11:21:45;;;;;;;;;;;18.10;99.90;;;;;;4958331;28;20050;-77
2023/10/05 11:24:14;;;;;;;11.50;2.80;;;18.10;99.90;;;;;;4973699;28;20725;-77
2023/10/05 11:29:28;;;;;;;13.93;2.42;;;17.70;99.90;;;;;;4972589;28;20304;-78
2023/10/05 11:32:09;;;;;;;13.63;2.50;;;18.20;99.90;;;;;;4971509;28;20058;-80
2023/10/05 11:34:38;;;;;;;15.05;2.38;;;18.10;99.90;;;;;;4972601;28;20189;-76
2023/10/05 11:37:15;;;;;;;11.23;2.85;;;18.20;99.90;;;;;;4972225;28;20058;-79
2023/10/05 11:39:45;;;;;;;13.77;2.58;;;18.30;99.90;;;;;;4973730;28;20054;-78
2023/10/05 11:42:11;;;;;;;10.55;2.45;;;18.30;99.90;;;;;;4973293;28;20564;-76
2023/10/05 11:44:38;;;;;;;12.27;2.67;;;18.40;99.90;;;;;;4974060;28;20799;-78
2023/10/05 11:47:07;;;;;;;9.68;2.45;;;18.40;99.90;;;;;;4957370;28;20786;-78
2023/10/05 11:49:33;;;;;;;13.10;2.20;;;18.50;99.90;;;;;;4972513;28;20042;-75
2023/10/05 11:52:00;;;;;;;14.57;3.00;;;18.70;99.90;;;;;;4969093;28;20057;-76
2023/10/05 11:54:30;;;;;;;11.73;2.13;;;18.80;99.90;;;;;;4972038;28;20074;-77
2023/10/05 11:57:00;;;;;;;10.13;2.33;;;18.90;99.90;;;;;;4971684;28;20054;-76
2023/10/05 11:59:36;;;;;;;12.00;2.65;;;18.90;99.90;;;;;;4984793;28;20117;-75
2023/10/05 12:02:08;;;;;;;8.35;1.52;;;19.00;99.90;;;;;;4969822;28;20042;-75
2023/10/05 12:04:39;;;;;;;10.85;1.73;;;18.90;99.90;;;;;;4975219;28;20081;-78
2023/10/05 12:07:05;;;;;;;8.98;2.30;;;18.50;99.90;;;;;;4971294;28;20066;-83
2023/10/05 12:09:32;;;;;;;8.38;1.63;;;18.50;99.90;;;;;;4972109;28;20050;-84
2023/10/05 12:12:03;;;;;;;9.57;1.63;;;18.20;99.90;;;;;;4970861;28;20055;-80
2023/10/05 12:14:29;;;;;;;9.63;1.40;;;18.00;99.90;;;;;;4972658;28;20043;-75
2023/10/05 12:16:56;;;;;;;9.00;1.63;;;17.70;99.90;;;;;;4970994;28;20496;-83
2023/10/05 12:19:28;;;;;;;7.28;1.42;;;17.50;99.90;;;;;;4948891;28;20047;-77
2023/10/05 12:21:55;;;;;;;7.18;1.23;;;17.40;99.90;;;;;;4948453;28;20063;-75
2023/10/05 12:24:21;;;;;;;5.45;1.08;;;17.20;99.90;;;;;;4949922;28;20055;-79
2023/10/05 12:26:47;;;;;;;5.38;1.00;;;;;;;;;;4944786;28;20054;-78
2023/10/05 12:29:14;;;;;;;5.15;0.73;;;17.20;99.90;;;;;;4951641;28;20058;-76
2023/10/05 12:31:41;;;;;;;7.82;1.25;;;17.30;99.90;;;;;;4956395;28;20149;-77
2023/10/05 12:34:09;;;;;;;6.43;0.98;;;17.20;99.90;;;;;;4945017;28;20116;-77
2023/10/05 12:36:35;;;;;;;7.75;1.48;;;17.30;99.90;;;;;;4936055;28;21050;-79
2023/10/05 12:39:01;;;;;;;9.00;1.33;;;;;;;;;;4927272;28;20059;-75
2023/10/05 12:41:40;;;;;;;8.95;1.80;;;17.40;99.90;;;;;;4942110;28;21913;-76
2023/10/05 12:44:09;;;;;;;9.30;1.65;;;17.50;99.90;;;;;;4933829;28;20124;-75
2023/10/05 12:46:41;;;;;;;12.00;2.22;;;17.80;99.90;;;;;;4931568;28;20059;-74
2023/10/05 12:49:10;;;;;;;9.32;1.95;;;17.70;99.90;;;;;;4939670;28;20072;-78
2023/10/05 12:51:39;;;;;;;12.55;2.67;;;17.90;99.90;;;;;;4948517;28;21104;-75
2023/10/05 12:54:09;;;;;;;9.23;1.92;;;16.60;99.90;;;;;;4940278;28;20046;-75
2023/10/05 12:56:38;;;;;;;11.73;1.75;;;17.20;99.90;;;;;;4952011;28;20058;-76
2023/10/05 12:59:10;;;;;;;8.75;1.60;;;18.30;99.90;;;;;;4970607;28;20057;-75
2023/10/05 13:01:42;;;;;;;9.27;2.05;;;18.30;99.90;;;;;;4957234;28;20054;-75
2023/10/05 13:04:12;;;;;;;9.18;1.95;;;18.30;99.90;;;;;;4956063;28;20082;-72
2023/10/05 13:06:39;;;;;;;10.88;1.80;;;18.20;99.90;;;;;;4959330;28;20059;-77
2023/10/05 13:09:11;;;;;;;6.15;1.65;;;18.20;99.90;;;;;;4961629;28;20115;-76
2023/10/05 13:11:47;;;;;;;9.57;1.77;;;18.20;99.90;;;;;;4973227;28;20513;-78
2023/10/05 13:14:19;;;;;;;11.23;2.20;;;18.30;99.90;;;;;;4953567;28;20058;-79
2023/10/05 13:16:44;;;;;;;;;;;18.30;99.90;;;;;;4963382;28;20093;-74
2023/10/05 13:19:12;;;;;;;10.70;1.65;;;18.50;99.90;;;;;;4942665;28;20726;-76
2023/10/05 13:21:45;;;;;;;8.05;1.95;;;18.20;99.90;;;;;;4946526;28;20062;-75
2023/10/05 13:24:11;;;;;;;9.52;2.30;;;18.00;99.90;;;;;;4978280;28;20070;-77
2023/10/05 13:26:44;;;;;;;7.32;1.90;;;18.10;99.90;;;;;;4956276;28;20054;-76
2023/10/05 13:29:17;;;;;;;7.57;1.40;;;18.00;99.90;;;;;;4951860;28;20120;-76
2023/10/05 13:31:46;;;;;;;11.00;1.83;;;17.80;99.90;;;;;;4937054;28;20068;-77
2023/10/05 13:34:16;;;;;;;9.73;1.30;;;17.70;99.90;;;;;;4947760;28;20800;-77
2023/10/05 13:36:43;;;;;;;8.70;2.03;;;17.40;99.90;;;;;;4950313;28;20054;-75
2023/10/05 13:39:12;;;;;;;8.95;1.55;;;17.30;99.90;;;;;;4965001;28;20046;-76
2023/10/05 13:41:38;;;;;;;10.38;1.75;;;17.20;99.90;;;;;;4942524;28;20054;-80